BEL1UD EBBR-LGKR
Flight info
| Callsign | BEL1UD |
|---|---|
| Flight time | 2h 18m |
| Altitude | 39000 |
| Route | SOPOK Y863 ROPUV L607 EMGOD DCT MOVUM T109 HAREM Z74 LAMPU DCT NOMBO Y161 MAH DCT VAVOR DCT RADIZ DCT GIMIX DCT SABAD DCT NERRA DCT RODON DCT LIMJA N732 PITAS |
| Aircraft | A20N/M-DE3FGHIJ1LORVWY/HB1G1 |
Departure
| Time | 2026-04-30 11:25 |
|---|---|
| Airport | Brussels Airport (EBBR) |
Arrival
| Time | 2026-04-30 13:43 |
|---|---|
| Airport | Corfu Ioannis Kapodistrias International Airport (LGKR) |
| Time | Latitude | Longitude | Altitude | Speed | Heading |
|---|---|---|---|---|---|
| 2026-04-30 10:58 | 50.90377 | 4.48482 | 132 ft | 0 kts | 156° |
| 2026-04-30 11:13 | 50.90382 | 4.48478 | 132 ft | 2 kts | 156° |
| 2026-04-30 11:14 | 50.90396 | 4.48469 | 131 ft | 2 kts | 155° |
| 2026-04-30 11:14 | 50.90406 | 4.48461 | 131 ft | 2 kts | 154° |
| 2026-04-30 11:14 | 50.90418 | 4.48447 | 131 ft | 2 kts | 136° |
| 2026-04-30 11:14 | 50.90427 | 4.48431 | 130 ft | 0 kts | 124° |
| 2026-04-30 11:15 | 50.90433 | 4.48414 | 130 ft | 2 kts | 111° |
| 2026-04-30 11:15 | 50.90437 | 4.48391 | 130 ft | 2 kts | 99° |
| 2026-04-30 11:15 | 50.90438 | 4.48368 | 130 ft | 2 kts | 85° |
| 2026-04-30 11:15 | 50.90435 | 4.48345 | 130 ft | 2 kts | 71° |
| 2026-04-30 11:16 | 50.90432 | 4.48333 | 130 ft | 0 kts | 64° |
| 2026-04-30 11:17 | 50.90433 | 4.48336 | 130 ft | 1 kts | 66° |
| 2026-04-30 11:18 | 50.90444 | 4.48374 | 130 ft | 6 kts | 66° |
| 2026-04-30 11:18 | 50.90510 | 4.48602 | 130 ft | 15 kts | 68° |
| 2026-04-30 11:18 | 50.90561 | 4.48776 | 130 ft | 19 kts | 65° |
| 2026-04-30 11:19 | 50.90621 | 4.48983 | 130 ft | 22 kts | 66° |
| 2026-04-30 11:19 | 50.90651 | 4.49094 | 130 ft | 8 kts | 77° |
| 2026-04-30 11:19 | 50.90601 | 4.49170 | 131 ft | 12 kts | 155° |
| 2026-04-30 11:19 | 50.90514 | 4.49230 | 134 ft | 14 kts | 156° |
| 2026-04-30 11:20 | 50.90419 | 4.49299 | 137 ft | 16 kts | 156° |
| 2026-04-30 11:20 | 50.90323 | 4.49390 | 139 ft | 12 kts | 147° |
| 2026-04-30 11:20 | 50.90228 | 4.49381 | 142 ft | 15 kts | 195° |
| 2026-04-30 11:20 | 50.90117 | 4.49336 | 145 ft | 17 kts | 194° |
| 2026-04-30 11:21 | 50.90000 | 4.49289 | 148 ft | 17 kts | 195° |
| 2026-04-30 11:21 | 50.89898 | 4.49329 | 150 ft | 14 kts | 148° |
| 2026-04-30 11:21 | 50.89807 | 4.49326 | 153 ft | 12 kts | 195° |
| 2026-04-30 11:21 | 50.89729 | 4.49296 | 156 ft | 10 kts | 194° |
| 2026-04-30 11:22 | 50.89664 | 4.49269 | 158 ft | 8 kts | 195° |
| 2026-04-30 11:22 | 50.89608 | 4.49232 | 159 ft | 9 kts | 221° |
| 2026-04-30 11:22 | 50.89544 | 4.49179 | 160 ft | 11 kts | 195° |
| 2026-04-30 11:22 | 50.89463 | 4.49146 | 163 ft | 12 kts | 195° |
| 2026-04-30 11:23 | 50.89377 | 4.49111 | 165 ft | 13 kts | 194° |
| 2026-04-30 11:23 | 50.89276 | 4.49072 | 167 ft | 15 kts | 194° |
| 2026-04-30 11:23 | 50.89154 | 4.49123 | 171 ft | 11 kts | 72° |
| 2026-04-30 11:24 | 50.89243 | 4.49509 | 173 ft | 71 kts | 70° |
| 2026-04-30 11:24 | 50.89489 | 4.50574 | 173 ft | 132 kts | 70° |
| 2026-04-30 11:24 | 50.89848 | 4.52113 | 480 ft | 153 kts | 73° |
| 2026-04-30 11:25 | 50.89980 | 4.55292 | 1724 ft | 157 kts | 128° |
| 2026-04-30 11:25 | 50.89178 | 4.56378 | 2414 ft | 155 kts | 133° |
| 2026-04-30 11:25 | 50.87690 | 4.59135 | 3286 ft | 180 kts | 126° |
| 2026-04-30 11:26 | 50.85941 | 4.62588 | 4097 ft | 220 kts | 127° |
| 2026-04-30 11:26 | 50.84941 | 4.64536 | 4599 ft | 237 kts | 127° |
| 2026-04-30 11:26 | 50.83878 | 4.66596 | 5318 ft | 245 kts | 127° |
| 2026-04-30 11:27 | 50.82803 | 4.68672 | 6161 ft | 248 kts | 127° |
| 2026-04-30 11:27 | 50.81715 | 4.70767 | 6967 ft | 252 kts | 127° |
| 2026-04-30 11:27 | 50.80594 | 4.72924 | 7780 ft | 256 kts | 127° |
| 2026-04-30 11:27 | 50.79465 | 4.75095 | 8571 ft | 261 kts | 127° |
| 2026-04-30 11:28 | 50.77145 | 4.79553 | 10152 ft | 268 kts | 127° |
| 2026-04-30 11:28 | 50.75966 | 4.81814 | 10852 ft | 275 kts | 127° |
| 2026-04-30 11:28 | 50.74719 | 4.84211 | 11271 ft | 291 kts | 127° |
| 2026-04-30 11:29 | 50.73389 | 4.86765 | 11671 ft | 308 kts | 127° |
| 2026-04-30 11:29 | 50.72025 | 4.89375 | 12292 ft | 315 kts | 127° |
| 2026-04-30 11:29 | 50.69212 | 4.94746 | 13734 ft | 323 kts | 127° |
| 2026-04-30 11:30 | 50.66341 | 5.00223 | 15083 ft | 330 kts | 127° |
| 2026-04-30 11:30 | 50.64865 | 5.03034 | 15770 ft | 334 kts | 127° |
| 2026-04-30 11:30 | 50.63388 | 5.05844 | 16422 ft | 337 kts | 127° |
| 2026-04-30 11:31 | 50.61896 | 5.08678 | 17074 ft | 340 kts | 127° |
| 2026-04-30 11:31 | 50.60398 | 5.11522 | 17687 ft | 344 kts | 127° |
| 2026-04-30 11:31 | 50.58859 | 5.14442 | 18286 ft | 347 kts | 127° |
| 2026-04-30 11:31 | 50.57325 | 5.17346 | 18895 ft | 350 kts | 127° |
| 2026-04-30 11:32 | 50.55756 | 5.20315 | 19528 ft | 353 kts | 127° |
| 2026-04-30 11:32 | 50.54200 | 5.23254 | 20111 ft | 356 kts | 127° |
| 2026-04-30 11:32 | 50.52598 | 5.26279 | 20715 ft | 360 kts | 127° |
| 2026-04-30 11:33 | 50.49401 | 5.32303 | 21815 ft | 366 kts | 126° |
| 2026-04-30 11:33 | 50.47769 | 5.35372 | 22375 ft | 369 kts | 126° |
| 2026-04-30 11:33 | 50.46117 | 5.38477 | 22908 ft | 372 kts | 126° |
| 2026-04-30 11:33 | 50.44465 | 5.41579 | 23416 ft | 375 kts | 126° |
| 2026-04-30 11:34 | 50.42776 | 5.44745 | 23932 ft | 378 kts | 126° |
| 2026-04-30 11:34 | 50.41082 | 5.47919 | 24448 ft | 381 kts | 126° |
| 2026-04-30 11:34 | 50.39406 | 5.51056 | 24944 ft | 383 kts | 126° |
| 2026-04-30 11:34 | 50.37674 | 5.54291 | 25441 ft | 385 kts | 126° |
| 2026-04-30 11:35 | 50.35954 | 5.57503 | 25924 ft | 388 kts | 126° |
| 2026-04-30 11:35 | 50.34241 | 5.60697 | 26371 ft | 390 kts | 126° |
| 2026-04-30 11:35 | 50.32494 | 5.63951 | 26812 ft | 393 kts | 126° |
| 2026-04-30 11:35 | 50.30725 | 5.67240 | 27244 ft | 395 kts | 127° |
| 2026-04-30 11:36 | 50.28958 | 5.70533 | 27639 ft | 398 kts | 127° |
| 2026-04-30 11:36 | 50.27219 | 5.73857 | 28035 ft | 399 kts | 123° |
| 2026-04-30 11:36 | 50.25743 | 5.77530 | 28433 ft | 398 kts | 115° |
| 2026-04-30 11:36 | 50.24640 | 5.81462 | 28817 ft | 398 kts | 107° |
| 2026-04-30 11:37 | 50.23853 | 5.85635 | 29192 ft | 399 kts | 103° |
| 2026-04-30 11:37 | 50.23150 | 5.89822 | 29554 ft | 401 kts | 102° |
| 2026-04-30 11:37 | 50.22451 | 5.94040 | 29913 ft | 403 kts | 102° |
| 2026-04-30 11:37 | 50.21743 | 5.98276 | 30157 ft | 408 kts | 102° |
| 2026-04-30 11:38 | 50.21016 | 6.02582 | 30393 ft | 412 kts | 102° |
| 2026-04-30 11:38 | 50.20285 | 6.06894 | 30686 ft | 415 kts | 102° |
| 2026-04-30 11:38 | 50.19609 | 6.11280 | 31008 ft | 416 kts | 99° |
| 2026-04-30 11:38 | 50.19121 | 6.15714 | 31318 ft | 416 kts | 96° |
| 2026-04-30 11:39 | 50.18829 | 6.20136 | 31604 ft | 417 kts | 92° |
| 2026-04-30 11:39 | 50.18729 | 6.24651 | 31890 ft | 418 kts | 88° |
| 2026-04-30 11:39 | 50.18828 | 6.29168 | 32240 ft | 416 kts | 84° |
| 2026-04-30 11:39 | 50.19081 | 6.33617 | 32630 ft | 414 kts | 83° |
| 2026-04-30 11:40 | 50.19360 | 6.38103 | 33000 ft | 413 kts | 83° |
| 2026-04-30 11:40 | 50.19638 | 6.42549 | 33339 ft | 412 kts | 83° |
| 2026-04-30 11:40 | 50.19912 | 6.46952 | 33675 ft | 410 kts | 83° |
| 2026-04-30 11:40 | 50.20182 | 6.51323 | 33987 ft | 409 kts | 83° |
| 2026-04-30 11:41 | 50.20451 | 6.55742 | 34295 ft | 408 kts | 83° |
| 2026-04-30 11:41 | 50.20718 | 6.60131 | 34591 ft | 407 kts | 83° |
| 2026-04-30 11:41 | 50.20984 | 6.64530 | 34857 ft | 406 kts | 83° |
| 2026-04-30 11:41 | 50.21244 | 6.68869 | 35079 ft | 406 kts | 84° |
| 2026-04-30 11:42 | 50.21500 | 6.73170 | 35261 ft | 406 kts | 84° |
| 2026-04-30 11:42 | 50.21766 | 6.77669 | 35305 ft | 406 kts | 84° |
| 2026-04-30 11:42 | 50.21978 | 6.86430 | 35321 ft | 406 kts | 89° |
| 2026-04-30 11:43 | 50.21641 | 6.95238 | 35325 ft | 407 kts | 92° |
| 2026-04-30 11:43 | 50.21184 | 7.04027 | 35330 ft | 407 kts | 92° |
| 2026-04-30 11:44 | 50.20723 | 7.12769 | 35329 ft | 407 kts | 92° |
| 2026-04-30 11:44 | 50.20253 | 7.21515 | 35331 ft | 407 kts | 92° |
| 2026-04-30 11:45 | 50.19600 | 7.30327 | 35335 ft | 408 kts | 97° |
| 2026-04-30 11:45 | 50.18366 | 7.38970 | 35338 ft | 410 kts | 102° |
| 2026-04-30 11:46 | 50.16683 | 7.47493 | 35337 ft | 411 kts | 104° |
| 2026-04-30 11:46 | 50.14978 | 7.55958 | 35337 ft | 411 kts | 104° |
| 2026-04-30 11:47 | 50.13259 | 7.64463 | 35333 ft | 411 kts | 103° |
| 2026-04-30 11:47 | 50.11552 | 7.72882 | 35327 ft | 412 kts | 104° |
| 2026-04-30 11:48 | 50.09827 | 7.81355 | 35332 ft | 413 kts | 104° |
| 2026-04-30 11:48 | 50.08074 | 7.89915 | 35345 ft | 412 kts | 104° |
| 2026-04-30 11:49 | 50.06336 | 7.98362 | 35354 ft | 412 kts | 104° |
| 2026-04-30 11:49 | 50.04575 | 8.06882 | 35352 ft | 412 kts | 104° |
| 2026-04-30 11:50 | 50.02819 | 8.15345 | 35350 ft | 412 kts | 104° |
| 2026-04-30 11:50 | 50.01062 | 8.23778 | 35350 ft | 413 kts | 104° |
| 2026-04-30 11:51 | 49.99292 | 8.32234 | 35353 ft | 413 kts | 104° |
| 2026-04-30 11:51 | 49.97495 | 8.40774 | 35353 ft | 413 kts | 104° |
| 2026-04-30 11:52 | 49.95634 | 8.49140 | 35356 ft | 415 kts | 107° |
| 2026-04-30 11:52 | 49.93211 | 8.57333 | 35359 ft | 420 kts | 113° |
| 2026-04-30 11:53 | 49.90344 | 8.65226 | 35359 ft | 421 kts | 115° |
| 2026-04-30 11:53 | 49.87441 | 8.73080 | 35350 ft | 422 kts | 115° |
| 2026-04-30 11:54 | 49.84528 | 8.80916 | 35341 ft | 422 kts | 115° |
| 2026-04-30 11:54 | 49.81602 | 8.88776 | 35344 ft | 421 kts | 115° |
| 2026-04-30 11:55 | 49.78719 | 8.96495 | 35342 ft | 421 kts | 115° |
| 2026-04-30 11:55 | 49.75789 | 9.04325 | 35343 ft | 422 kts | 115° |
| 2026-04-30 11:56 | 49.72858 | 9.12142 | 35342 ft | 422 kts | 115° |
| 2026-04-30 11:56 | 49.69915 | 9.19981 | 35339 ft | 423 kts | 115° |
| 2026-04-30 11:57 | 49.66970 | 9.27792 | 35335 ft | 422 kts | 115° |
| 2026-04-30 11:57 | 49.63679 | 9.35357 | 35335 ft | 427 kts | 123° |
| 2026-04-30 11:58 | 49.59615 | 9.42050 | 35337 ft | 434 kts | 132° |
| 2026-04-30 11:58 | 49.54789 | 9.47757 | 35336 ft | 442 kts | 141° |
| 2026-04-30 11:59 | 49.49525 | 9.52625 | 35342 ft | 444 kts | 143° |
| 2026-04-30 11:59 | 49.44219 | 9.57464 | 35343 ft | 444 kts | 143° |
| 2026-04-30 12:00 | 49.38948 | 9.62286 | 35346 ft | 443 kts | 141° |
| 2026-04-30 12:00 | 49.33908 | 9.67649 | 35350 ft | 438 kts | 136° |
| 2026-04-30 12:01 | 49.29380 | 9.73767 | 35350 ft | 433 kts | 129° |
| 2026-04-30 12:01 | 49.25114 | 9.80318 | 35349 ft | 433 kts | 129° |
| 2026-04-30 12:02 | 49.20856 | 9.86819 | 35348 ft | 434 kts | 129° |
| 2026-04-30 12:02 | 49.16608 | 9.93278 | 35346 ft | 433 kts | 129° |
| 2026-04-30 12:03 | 49.10184 | 10.03005 | 35347 ft | 433 kts | 129° |
| 2026-04-30 12:04 | 49.05922 | 10.09430 | 35340 ft | 433 kts | 129° |
| 2026-04-30 12:04 | 49.01530 | 10.15670 | 35335 ft | 434 kts | 130° |
| 2026-04-30 12:05 | 48.97087 | 10.21904 | 35326 ft | 434 kts | 130° |
| 2026-04-30 12:05 | 48.92663 | 10.28144 | 35317 ft | 434 kts | 130° |
| 2026-04-30 12:06 | 48.88283 | 10.34317 | 35309 ft | 434 kts | 130° |
| 2026-04-30 12:06 | 48.83811 | 10.40580 | 35314 ft | 433 kts | 129° |
| 2026-04-30 12:07 | 48.79625 | 10.47082 | 35315 ft | 430 kts | 126° |
| 2026-04-30 12:07 | 48.75550 | 10.53624 | 35308 ft | 431 kts | 126° |
| 2026-04-30 12:08 | 48.71426 | 10.60213 | 35306 ft | 431 kts | 126° |
| 2026-04-30 12:08 | 48.67294 | 10.66793 | 35308 ft | 431 kts | 126° |
| 2026-04-30 12:09 | 48.63159 | 10.73385 | 35313 ft | 431 kts | 126° |
| 2026-04-30 12:09 | 48.59047 | 10.79907 | 35310 ft | 431 kts | 126° |
| 2026-04-30 12:10 | 48.54925 | 10.86492 | 35315 ft | 431 kts | 126° |
| 2026-04-30 12:10 | 48.50825 | 10.93053 | 35321 ft | 431 kts | 126° |
| 2026-04-30 12:11 | 48.46676 | 10.99605 | 35321 ft | 432 kts | 126° |
| 2026-04-30 12:11 | 48.42506 | 11.06086 | 35323 ft | 431 kts | 126° |
| 2026-04-30 12:12 | 48.38348 | 11.12553 | 35319 ft | 432 kts | 126° |
| 2026-04-30 12:12 | 48.34177 | 11.19031 | 35320 ft | 432 kts | 126° |
| 2026-04-30 12:13 | 48.29995 | 11.25543 | 35321 ft | 430 kts | 124° |
| 2026-04-30 12:13 | 48.26205 | 11.32392 | 35318 ft | 423 kts | 118° |
| 2026-04-30 12:14 | 48.23015 | 11.39666 | 35311 ft | 416 kts | 112° |
| 2026-04-30 12:14 | 48.20130 | 11.47168 | 35311 ft | 416 kts | 112° |
| 2026-04-30 12:15 | 48.17250 | 11.54617 | 35300 ft | 415 kts | 112° |
| 2026-04-30 12:15 | 48.14350 | 11.62089 | 35299 ft | 414 kts | 111° |
| 2026-04-30 12:16 | 48.11461 | 11.69521 | 35293 ft | 414 kts | 112° |
| 2026-04-30 12:16 | 48.08569 | 11.76944 | 35295 ft | 415 kts | 112° |
| 2026-04-30 12:17 | 48.04224 | 11.88040 | 35299 ft | 412 kts | 112° |
| 2026-04-30 12:17 | 48.01321 | 11.95429 | 35287 ft | 413 kts | 112° |
| 2026-04-30 12:18 | 47.98408 | 12.02820 | 34897 ft | 418 kts | 112° |
| 2026-04-30 12:18 | 47.96904 | 12.06495 | 34457 ft | 414 kts | 115° |
| 2026-04-30 12:18 | 47.95266 | 12.10048 | 34425 ft | 416 kts | 117° |
| 2026-04-30 12:19 | 47.93480 | 12.13518 | 34534 ft | 420 kts | 121° |
| 2026-04-30 12:19 | 47.91572 | 12.16821 | 34635 ft | 423 kts | 123° |
| 2026-04-30 12:19 | 47.87397 | 12.22916 | 34831 ft | 434 kts | 130° |
| 2026-04-30 12:20 | 47.85075 | 12.25823 | 34958 ft | 435 kts | 131° |
| 2026-04-30 12:20 | 47.82751 | 12.28715 | 35035 ft | 435 kts | 131° |
| 2026-04-30 12:20 | 47.78127 | 12.34493 | 35179 ft | 437 kts | 131° |
| 2026-04-30 12:21 | 47.73464 | 12.40319 | 35244 ft | 442 kts | 131° |
| 2026-04-30 12:21 | 47.68764 | 12.46175 | 35249 ft | 440 kts | 132° |
| 2026-04-30 12:22 | 47.64053 | 12.52034 | 35222 ft | 443 kts | 132° |
| 2026-04-30 12:22 | 47.59141 | 12.57603 | 35241 ft | 448 kts | 136° |
| 2026-04-30 12:23 | 47.54135 | 12.63041 | 35252 ft | 449 kts | 136° |
| 2026-04-30 12:23 | 47.49192 | 12.68423 | 35237 ft | 450 kts | 137° |
| 2026-04-30 12:24 | 47.44132 | 12.73939 | 35233 ft | 452 kts | 137° |
| 2026-04-30 12:24 | 47.41619 | 12.76669 | 35363 ft | 452 kts | 137° |
| 2026-04-30 12:24 | 47.39065 | 12.79438 | 35314 ft | 453 kts | 137° |
| 2026-04-30 12:25 | 47.33991 | 12.84916 | 35250 ft | 452 kts | 137° |
| 2026-04-30 12:25 | 47.28906 | 12.90398 | 35264 ft | 454 kts | 137° |
| 2026-04-30 12:26 | 47.23808 | 12.95876 | 35221 ft | 454 kts | 138° |
| 2026-04-30 12:26 | 47.18720 | 13.01334 | 35259 ft | 458 kts | 138° |
| 2026-04-30 12:27 | 47.13523 | 13.06899 | 35329 ft | 466 kts | 138° |
| 2026-04-30 12:27 | 47.08244 | 13.12538 | 35442 ft | 472 kts | 139° |
| 2026-04-30 12:28 | 47.02922 | 13.18197 | 35516 ft | 478 kts | 139° |
| 2026-04-30 12:28 | 46.97497 | 13.23955 | 35580 ft | 484 kts | 139° |
| 2026-04-30 12:29 | 46.92027 | 13.29745 | 35625 ft | 489 kts | 139° |
| 2026-04-30 12:29 | 46.86509 | 13.35555 | 35713 ft | 491 kts | 140° |
| 2026-04-30 12:30 | 46.80935 | 13.41396 | 35822 ft | 493 kts | 140° |
| 2026-04-30 12:30 | 46.75384 | 13.47218 | 35931 ft | 494 kts | 140° |
| 2026-04-30 12:31 | 46.69799 | 13.53074 | 36051 ft | 495 kts | 140° |
| 2026-04-30 12:31 | 46.64243 | 13.58892 | 36189 ft | 495 kts | 140° |
| 2026-04-30 12:32 | 46.58664 | 13.64720 | 36320 ft | 496 kts | 140° |
| 2026-04-30 12:32 | 46.53063 | 13.70569 | 36438 ft | 497 kts | 141° |
| 2026-04-30 12:33 | 46.47588 | 13.76619 | 36594 ft | 496 kts | 140° |
| 2026-04-30 12:33 | 46.42131 | 13.82696 | 36711 ft | 496 kts | 140° |
| 2026-04-30 12:34 | 46.36654 | 13.88778 | 36836 ft | 497 kts | 140° |
| 2026-04-30 12:34 | 46.31197 | 13.94832 | 36948 ft | 497 kts | 140° |
| 2026-04-30 12:35 | 46.25697 | 14.00912 | 37053 ft | 498 kts | 140° |
| 2026-04-30 12:35 | 46.20204 | 14.06968 | 37168 ft | 498 kts | 140° |
| 2026-04-30 12:36 | 46.14701 | 14.13022 | 37249 ft | 498 kts | 141° |
| 2026-04-30 12:36 | 46.09173 | 14.19085 | 37271 ft | 497 kts | 141° |
| 2026-04-30 12:37 | 46.03682 | 14.25097 | 37281 ft | 497 kts | 141° |
| 2026-04-30 12:37 | 45.98175 | 14.31109 | 37284 ft | 496 kts | 141° |
| 2026-04-30 12:38 | 45.92696 | 14.37076 | 37273 ft | 496 kts | 141° |
| 2026-04-30 12:38 | 45.87193 | 14.43041 | 37274 ft | 497 kts | 141° |
| 2026-04-30 12:39 | 45.81653 | 14.49010 | 37264 ft | 498 kts | 141° |
| 2026-04-30 12:39 | 45.76114 | 14.54983 | 37258 ft | 499 kts | 141° |
| 2026-04-30 12:40 | 45.70592 | 14.60936 | 37250 ft | 499 kts | 141° |
| 2026-04-30 12:40 | 45.65041 | 14.66913 | 37249 ft | 499 kts | 142° |
| 2026-04-30 12:41 | 45.59468 | 14.72927 | 37256 ft | 500 kts | 142° |
| 2026-04-30 12:41 | 45.53912 | 14.78890 | 37252 ft | 501 kts | 142° |
| 2026-04-30 12:42 | 45.48390 | 14.84785 | 37260 ft | 501 kts | 142° |
| 2026-04-30 12:42 | 45.42852 | 14.90767 | 37251 ft | 501 kts | 141° |
| 2026-04-30 12:43 | 45.37327 | 14.96867 | 37240 ft | 502 kts | 141° |
| 2026-04-30 12:43 | 45.31814 | 15.02941 | 37227 ft | 502 kts | 141° |
| 2026-04-30 12:44 | 45.26310 | 15.08983 | 37231 ft | 502 kts | 141° |
| 2026-04-30 12:44 | 45.20801 | 15.15011 | 37235 ft | 503 kts | 142° |
| 2026-04-30 12:45 | 45.15239 | 15.21077 | 37247 ft | 502 kts | 142° |
| 2026-04-30 12:45 | 45.09708 | 15.27095 | 37249 ft | 503 kts | 142° |
| 2026-04-30 12:46 | 45.04141 | 15.33140 | 37259 ft | 504 kts | 142° |
| 2026-04-30 12:46 | 44.98617 | 15.39123 | 37257 ft | 504 kts | 142° |
| 2026-04-30 12:47 | 44.93044 | 15.45144 | 37243 ft | 504 kts | 142° |
| 2026-04-30 12:47 | 44.87476 | 15.51132 | 37240 ft | 504 kts | 142° |
| 2026-04-30 12:48 | 44.81878 | 15.57116 | 37233 ft | 505 kts | 142° |
| 2026-04-30 12:48 | 44.76281 | 15.63099 | 37225 ft | 506 kts | 142° |
| 2026-04-30 12:49 | 44.70683 | 15.69095 | 37228 ft | 506 kts | 143° |
| 2026-04-30 12:49 | 44.65111 | 15.75067 | 37223 ft | 506 kts | 143° |
| 2026-04-30 12:50 | 44.59483 | 15.81068 | 37221 ft | 507 kts | 143° |
| 2026-04-30 12:50 | 44.53860 | 15.87041 | 37216 ft | 507 kts | 143° |
| 2026-04-30 12:51 | 44.48246 | 15.92984 | 37212 ft | 507 kts | 143° |
| 2026-04-30 12:51 | 44.42604 | 15.98946 | 37205 ft | 507 kts | 143° |
| 2026-04-30 12:52 | 44.36978 | 16.04875 | 37188 ft | 507 kts | 144° |
| 2026-04-30 12:52 | 44.31318 | 16.10821 | 37171 ft | 507 kts | 144° |
| 2026-04-30 12:53 | 44.25726 | 16.16684 | 37169 ft | 508 kts | 144° |
| 2026-04-30 12:53 | 44.20065 | 16.22604 | 37169 ft | 507 kts | 144° |
| 2026-04-30 12:54 | 44.14437 | 16.28475 | 37160 ft | 508 kts | 144° |
| 2026-04-30 12:54 | 44.08757 | 16.34388 | 37172 ft | 508 kts | 144° |
| 2026-04-30 12:55 | 44.03106 | 16.40255 | 37172 ft | 507 kts | 144° |
| 2026-04-30 12:55 | 43.97434 | 16.46129 | 37182 ft | 508 kts | 144° |
| 2026-04-30 12:56 | 43.91794 | 16.51955 | 37163 ft | 508 kts | 144° |
| 2026-04-30 12:56 | 43.86134 | 16.57774 | 37172 ft | 508 kts | 145° |
| 2026-04-30 12:57 | 43.80439 | 16.63596 | 37171 ft | 508 kts | 145° |
| 2026-04-30 12:57 | 43.74790 | 16.69399 | 37193 ft | 508 kts | 145° |
| 2026-04-30 12:58 | 43.69119 | 16.75229 | 37197 ft | 508 kts | 146° |
| 2026-04-30 12:58 | 43.63453 | 16.81022 | 37186 ft | 509 kts | 146° |
| 2026-04-30 12:59 | 43.57736 | 16.86845 | 37181 ft | 509 kts | 146° |
| 2026-04-30 12:59 | 43.52068 | 16.92603 | 37181 ft | 509 kts | 146° |
| 2026-04-30 13:00 | 43.46381 | 16.98368 | 37065 ft | 508 kts | 146° |
| 2026-04-30 13:00 | 43.40671 | 17.04142 | 37161 ft | 510 kts | 146° |
| 2026-04-30 13:01 | 43.34975 | 17.09886 | 37167 ft | 510 kts | 146° |
| 2026-04-30 13:01 | 43.29266 | 17.15631 | 37167 ft | 511 kts | 146° |
| 2026-04-30 13:02 | 43.23539 | 17.21382 | 37155 ft | 511 kts | 146° |
| 2026-04-30 13:02 | 43.17826 | 17.27104 | 37141 ft | 511 kts | 147° |
| 2026-04-30 13:03 | 43.12073 | 17.32853 | 37136 ft | 511 kts | 147° |
| 2026-04-30 13:03 | 43.06319 | 17.38596 | 37129 ft | 511 kts | 147° |
| 2026-04-30 13:04 | 43.00606 | 17.44275 | 37139 ft | 511 kts | 146° |
| 2026-04-30 13:04 | 42.94840 | 17.50009 | 37144 ft | 510 kts | 147° |
| 2026-04-30 13:05 | 42.89180 | 17.55748 | 37124 ft | 512 kts | 144° |
| 2026-04-30 13:06 | 42.80845 | 17.64896 | 37114 ft | 513 kts | 143° |
| 2026-04-30 13:06 | 42.75316 | 17.71018 | 37115 ft | 513 kts | 144° |
| 2026-04-30 13:07 | 42.69791 | 17.77120 | 37099 ft | 514 kts | 144° |
| 2026-04-30 13:07 | 42.64246 | 17.83217 | 37129 ft | 513 kts | 144° |
| 2026-04-30 13:08 | 42.58707 | 17.89283 | 37099 ft | 513 kts | 144° |
| 2026-04-30 13:08 | 42.53141 | 17.95366 | 37115 ft | 514 kts | 144° |
| 2026-04-30 13:09 | 42.47561 | 18.01446 | 37112 ft | 514 kts | 144° |
| 2026-04-30 13:09 | 42.42028 | 18.07467 | 37106 ft | 514 kts | 144° |
| 2026-04-30 13:10 | 42.36503 | 18.13468 | 37103 ft | 496 kts | 145° |
| 2026-04-30 13:10 | 42.33832 | 18.16372 | 36994 ft | 484 kts | 145° |
| 2026-04-30 13:10 | 42.31203 | 18.19221 | 36624 ft | 478 kts | 145° |
| 2026-04-30 13:10 | 42.28643 | 18.21990 | 36118 ft | 476 kts | 146° |
| 2026-04-30 13:11 | 42.26056 | 18.24783 | 35605 ft | 477 kts | 146° |
| 2026-04-30 13:11 | 42.23457 | 18.27581 | 35274 ft | 479 kts | 146° |
| 2026-04-30 13:11 | 42.20879 | 18.30355 | 35121 ft | 482 kts | 147° |
| 2026-04-30 13:12 | 42.15602 | 18.36020 | 35096 ft | 484 kts | 146° |
| 2026-04-30 13:12 | 42.10350 | 18.41658 | 35093 ft | 484 kts | 146° |
| 2026-04-30 13:13 | 42.02450 | 18.50115 | 35108 ft | 483 kts | 147° |
| 2026-04-30 13:14 | 41.94561 | 18.58528 | 34773 ft | 480 kts | 147° |
| 2026-04-30 13:14 | 41.91942 | 18.61324 | 34445 ft | 475 kts | 147° |
| 2026-04-30 13:14 | 41.86797 | 18.66785 | 33738 ft | 474 kts | 148° |
| 2026-04-30 13:15 | 41.84213 | 18.69526 | 33478 ft | 475 kts | 148° |
| 2026-04-30 13:15 | 41.79036 | 18.75017 | 33077 ft | 474 kts | 148° |
| 2026-04-30 13:16 | 41.73884 | 18.80465 | 33068 ft | 474 kts | 148° |
| 2026-04-30 13:16 | 41.68695 | 18.85946 | 33061 ft | 473 kts | 147° |
| 2026-04-30 13:17 | 41.60938 | 18.94114 | 33057 ft | 473 kts | 148° |
| 2026-04-30 13:18 | 41.53187 | 19.02254 | 33050 ft | 473 kts | 147° |
| 2026-04-30 13:18 | 41.45108 | 19.09620 | 33048 ft | 462 kts | 158° |
| 2026-04-30 13:19 | 41.39370 | 19.13150 | 33044 ft | 453 kts | 166° |
| 2026-04-30 13:19 | 41.33428 | 19.16027 | 33043 ft | 453 kts | 167° |
| 2026-04-30 13:20 | 41.27507 | 19.18884 | 33046 ft | 453 kts | 167° |
| 2026-04-30 13:20 | 41.21589 | 19.21757 | 33047 ft | 453 kts | 167° |
| 2026-04-30 13:21 | 41.15674 | 19.24627 | 33040 ft | 453 kts | 166° |
| 2026-04-30 13:22 | 41.06863 | 19.28898 | 33033 ft | 450 kts | 166° |
| 2026-04-30 13:22 | 40.97935 | 19.33151 | 33031 ft | 465 kts | 166° |
| 2026-04-30 13:23 | 40.88606 | 19.37623 | 33030 ft | 482 kts | 165° |
| 2026-04-30 13:24 | 40.76030 | 19.43658 | 33016 ft | 481 kts | 165° |
| 2026-04-30 13:25 | 40.69802 | 19.46645 | 31951 ft | 477 kts | 165° |
| 2026-04-30 13:25 | 40.63542 | 19.49628 | 29952 ft | 486 kts | 165° |
| 2026-04-30 13:26 | 40.53958 | 19.54195 | 26993 ft | 490 kts | 165° |
| 2026-04-30 13:26 | 40.47602 | 19.57212 | 25780 ft | 491 kts | 165° |
| 2026-04-30 13:27 | 40.41135 | 19.60280 | 25052 ft | 492 kts | 164° |
| 2026-04-30 13:28 | 40.31478 | 19.64855 | 25042 ft | 493 kts | 165° |
| 2026-04-30 13:28 | 40.25028 | 19.67928 | 25038 ft | 493 kts | 165° |
| 2026-04-30 13:28 | 40.21810 | 19.69460 | 25041 ft | 493 kts | 165° |
| 2026-04-30 13:29 | 40.15400 | 19.72490 | 25022 ft | 489 kts | 166° |
| 2026-04-30 13:29 | 40.08872 | 19.73576 | 23525 ft | 470 kts | 186° |
| 2026-04-30 13:30 | 39.99095 | 19.73165 | 20371 ft | 455 kts | 186° |
| 2026-04-30 13:31 | 39.92986 | 19.73105 | 18546 ft | 426 kts | 185° |
| 2026-04-30 13:31 | 39.84433 | 19.73127 | 16658 ft | 395 kts | 185° |
| 2026-04-30 13:32 | 39.79016 | 19.73159 | 15735 ft | 382 kts | 185° |
| 2026-04-30 13:32 | 39.73819 | 19.73192 | 14935 ft | 368 kts | 185° |
| 2026-04-30 13:33 | 39.68775 | 19.73225 | 14094 ft | 357 kts | 185° |
| 2026-04-30 13:33 | 39.63896 | 19.73259 | 13218 ft | 342 kts | 185° |
| 2026-04-30 13:34 | 39.61533 | 19.73276 | 12537 ft | 333 kts | 185° |
| 2026-04-30 13:34 | 39.54903 | 19.73321 | 10559 ft | 306 kts | 185° |
| 2026-04-30 13:35 | 39.52824 | 19.73337 | 9999 ft | 295 kts | 185° |
| 2026-04-30 13:35 | 39.48792 | 19.73363 | 8712 ft | 286 kts | 185° |
| 2026-04-30 13:36 | 39.44862 | 19.73382 | 7323 ft | 281 kts | 184° |
| 2026-04-30 13:36 | 39.42912 | 19.73492 | 6864 ft | 282 kts | 172° |
| 2026-04-30 13:36 | 39.40192 | 19.76765 | 6278 ft | 279 kts | 103° |
| 2026-04-30 13:37 | 39.40141 | 19.79191 | 6071 ft | 269 kts | 80° |
| 2026-04-30 13:37 | 39.40748 | 19.83867 | 5574 ft | 260 kts | 79° |
| 2026-04-30 13:38 | 39.41268 | 19.88419 | 5098 ft | 251 kts | 81° |
| 2026-04-30 13:38 | 39.41500 | 19.90625 | 4882 ft | 245 kts | 81° |
| 2026-04-30 13:38 | 39.41952 | 19.94914 | 3864 ft | 237 kts | 77° |
| 2026-04-30 13:39 | 39.43828 | 19.97711 | 3001 ft | 198 kts | 7° |
| 2026-04-30 13:39 | 39.46293 | 19.96759 | 2659 ft | 180 kts | 330° |
| 2026-04-30 13:40 | 39.47343 | 19.95969 | 2364 ft | 169 kts | 328° |
| 2026-04-30 13:40 | 39.48324 | 19.95216 | 2140 ft | 158 kts | 329° |
| 2026-04-30 13:40 | 39.49290 | 19.94579 | 1881 ft | 151 kts | 336° |
| 2026-04-30 13:40 | 39.50259 | 19.94140 | 1607 ft | 145 kts | 345° |
| 2026-04-30 13:41 | 39.51223 | 19.93780 | 1495 ft | 143 kts | 343° |
| 2026-04-30 13:41 | 39.52150 | 19.93416 | 1413 ft | 138 kts | 344° |
| 2026-04-30 13:41 | 39.53087 | 19.93121 | 1253 ft | 137 kts | 347° |
| 2026-04-30 13:41 | 39.54012 | 19.92853 | 1118 ft | 137 kts | 347° |
| 2026-04-30 13:42 | 39.54944 | 19.92604 | 971 ft | 136 kts | 348° |
| 2026-04-30 13:42 | 39.55882 | 19.92359 | 801 ft | 136 kts | 347° |
| 2026-04-30 13:42 | 39.57735 | 19.91856 | 399 ft | 135 kts | 347° |
| 2026-04-30 13:43 | 39.58651 | 19.91614 | 176 ft | 134 kts | 347° |
| 2026-04-30 13:43 | 39.59555 | 19.91380 | 8 ft | 130 kts | 347° |
| 2026-04-30 13:43 | 39.60316 | 19.91179 | 0 ft | 74 kts | 349° |
| 2026-04-30 13:43 | 39.60595 | 19.91216 | 1 ft | 18 kts | 45° |
| 2026-04-30 13:44 | 39.60677 | 19.91220 | 2 ft | 9 kts | 348° |
| 2026-04-30 13:44 | 39.60745 | 19.91202 | 3 ft | 10 kts | 348° |
| 2026-04-30 13:44 | 39.60811 | 19.91186 | 3 ft | 7 kts | 1° |
| 2026-04-30 13:44 | 39.60841 | 19.91214 | 4 ft | 2 kts | 79° |
| 2026-04-30 13:45 | 39.60834 | 19.91283 | 5 ft | 2 kts | 84° |
| 2026-04-30 13:45 | 39.60837 | 19.91309 | 7 ft | 6 kts | 79° |
| 2026-04-30 13:45 | 39.60838 | 19.91316 | 7 ft | 0 kts | 78° |